Overview Statistics Trail Chart Weather Telemetry Raw packets
 

This is the latest recevied weather packets stored in our database for station/object KC9TVS-13. If no packets are shown the sender has not sent any weather packets the latest 10 day(s).

<< 3 4 5 6 7 8 9 >>
Time Temp. Humidity Pressure Rain* Wind** Luminosity Snow
1788544703 28.33° C 84% 1014.6 hPa 0.25 mm - 19 W/m² -
1788544401 28.33° C 85% 1014.9 hPa 0.25 mm - 19 W/m² -
1788544100 28.33° C 85% 1014.7 hPa 0.25 mm - 32 W/m² -
1788543801 28.33° C 85% 1014.6 hPa 0.25 mm - 49 W/m² -
1788543501 28.33° C 85% 1014.5 hPa 0.25 mm - 67 W/m² -
1788543200 28.89° C 85% 1014.6 hPa 0.25 mm - 81 W/m² -
1788542902 28.89° C 85% 1014.8 hPa 0.25 mm - 88 W/m² -
1788542601 28.89° C 84% 1015 hPa 0.25 mm - 86 W/m² -
1788542300 28.89° C 84% 1014.9 hPa 0.25 mm - 95 W/m² -
1788542001 28.89° C 83% 1014.6 hPa 0.25 mm - 176 W/m² -
1788541699 29.44° C 82% 1014.7 hPa 0 mm - 155 W/m² -
1788541400 29.44° C 85% 1014.7 hPa 0 mm - 176 W/m² -
1788541098 30.56° C 82% 1014.9 hPa 0 mm - 229 W/m² -
1788540798 30.56° C 76% 1015.1 hPa 0 mm - 248 W/m² -
1788540500 31.11° C 75% 1015.1 hPa 0 mm - 255 W/m² -
1788540198 31.11° C 72% 1015.2 hPa 0 mm - 302 W/m² -
1788539898 31.67° C 73% 1015.1 hPa 0 mm - 835 W/m² -
1788539599 32.22° C 72% 1015.1 hPa 0 mm - 1004 W/m² -
1788539298 31.67° C 77% 1015.2 hPa 0 mm - 708 W/m² -
1788538998 31.11° C 79% 1015.3 hPa 0 mm - 796 W/m² -
1788538699 30.56° C 77% 1015.4 hPa 0 mm - 671 W/m² -
1788538400 30.56° C 79% 1015.4 hPa 0 mm - 563 W/m² -
1788538098 30° C 80% 1015.4 hPa 0 mm - 424 W/m² -
1788537796 30° C 80% 1015.4 hPa 0 mm - 313 W/m² -
1788537497 30° C 80% 1015.3 hPa 0 mm - 281 W/m² -

* Rain latest hour (hover to see other rain measurements)
** Current wind speed in m/s (hover to see current wind gust speed)